Hays, KS

4:34 AM CDT on March 27, 2017 (GMT -0500)
Hays Regional

Weather History for KHYS - January, 2014

Change the Weather History Date:

Sunday, January 12, 2014

  Actual Average Record
Temperature  
Mean Temperature 44 °F -  
Max Temperature 55 °F 40 °F 62 °F (1999)
Min Temperature 32 °F 16 °F -5 °F (2011)
Degree Days  
Heating Degree Days 22    
Moisture  
Dew Point 24 °F    
Average Humidity 48    
Maximum Humidity 65    
Minimum Humidity 35    
Precipitation  
Precipitation 0.00 in - - ()
Sea Level Pressure  
Sea Level Pressure 29.61 in    
Wind  
Wind Speed 10 mph (WNW)    
Max Wind Speed 28 mph    
Max Gust Speed 44 mph    
Visibility 10 miles    
Events      
Averages and records for this station are not official NWS values.
T = Trace of Precipitation, MM = Missing Value Source: NWS Daily Summary

Daily Weather History Graph

Daily Weather History Graph

Search for Another Location

Airport or City:

Trip Planner

Search our weather history database for the weather conditions in past years. The results will help you decide how hot, cold, wet, or windy it might be!

Date:

Astronomy

Jan. 12, 2014 Rise Set
Actual Time 7:54 AM CST 5:36 PM CST
Civil Twilight 7:25 AM CST 6:05 PM CST
Nautical Twilight 6:52 AM CST 6:38 PM CST
Astronomical Twilight 6:20 AM CST 7:10 PM CST
Moon 3:05 PM CST (1/12) 4:55 AM CST (1/12)
Length of Visible Light 10h 40m
Length of Day
9h 41m
Waxing Gibbous, 90% of the Moon is Illuminated
Jan 12
Waxing Gibbous
Jan 15
Full
Jan 23
Last Quarter
Jan 30
New
Feb 6
First Quarter

Hourly Weather History & Observations

Time (CST) Temp. Windchill Dew Point Humidity Pressure Visibility Wind Dir Wind Speed Gust Speed Precip Events Conditions
12:15 AM 37.4 °F 32.1 °F 21.2 °F 52% 29.72 in 10.0 mi South 6.9 mph - N/A   Clear
12:35 AM 35.6 °F 32.8 °F 21.2 °F 56% 29.70 in 10.0 mi SSE 3.5 mph - N/A   Clear
12:55 AM 35.6 °F 31.7 °F 21.2 °F 56% 29.69 in 10.0 mi SW 4.6 mph - N/A   Clear
1:15 AM 37.4 °F 28.9 °F 21.2 °F 52% 29.67 in 10.0 mi SSW 13.8 mph - N/A   Clear
1:35 AM 39.2 °F 32.5 °F 21.2 °F 49% 29.66 in 10.0 mi SSW 10.4 mph - N/A   Clear
1:55 AM 37.4 °F 31.4 °F 21.2 °F 52% 29.65 in 10.0 mi SSW 8.1 mph - N/A   Clear
2:15 AM 37.4 °F 32.8 °F 19.4 °F 48% 29.64 in 10.0 mi SW 5.8 mph - N/A   Clear
2:35 AM 37.4 °F 31.4 °F 21.2 °F 52% 29.63 in 10.0 mi SSW 8.1 mph - N/A   Clear
2:55 AM 37.4 °F 30.3 °F 21.2 °F 52% 29.62 in 10.0 mi SSW 10.4 mph - N/A   Clear
3:15 AM 37.4 °F 32.1 °F 21.2 °F 52% 29.62 in 10.0 mi WSW 6.9 mph - N/A   Clear
3:35 AM 37.4 °F 32.1 °F 21.2 °F 52% 29.62 in 10.0 mi WSW 6.9 mph - N/A   Clear
3:55 AM 37.4 °F 28.2 °F 21.2 °F 52% 29.59 in 10.0 mi South 16.1 mph 23.0 mph N/A   Clear
4:15 AM 37.4 °F 30.8 °F 21.2 °F 52% 29.60 in 10.0 mi West 9.2 mph - N/A   Clear
4:35 AM 37.4 °F 28.5 °F 21.2 °F 52% 29.58 in 10.0 mi SSW 15.0 mph - N/A   Clear
4:55 AM 37.4 °F 29.8 °F 21.2 °F 52% 29.57 in 10.0 mi SW 11.5 mph - N/A   Clear
5:15 AM 37.4 °F 29.8 °F 21.2 °F 52% 29.56 in 10.0 mi SW 11.5 mph - N/A   Clear
5:35 AM 37.4 °F 32.1 °F 21.2 °F 52% 29.56 in 10.0 mi SW 6.9 mph - N/A   Clear
5:55 AM 37.4 °F 29.8 °F 21.2 °F 52% 29.55 in 10.0 mi SW 11.5 mph - N/A   Clear
6:15 AM 35.6 °F 27.5 °F 21.2 °F 56% 29.53 in 10.0 mi SSW 11.5 mph - N/A   Clear
6:35 AM 35.6 °F 28.0 °F 21.2 °F 56% 29.54 in 10.0 mi SW 10.4 mph - N/A   Clear
6:55 AM 35.6 °F 29.2 °F 21.2 °F 56% 29.52 in 10.0 mi SW 8.1 mph - N/A   Clear
7:15 AM 33.8 °F 28.6 °F 21.2 °F 60% 29.52 in 10.0 mi WSW 5.8 mph - N/A   Clear
7:35 AM 32.0 °F 26.4 °F 21.2 °F 64% 29.53 in 10.0 mi South 5.8 mph - N/A   Clear
7:55 AM 32.0 °F 24.2 °F 21.2 °F 64% 29.53 in 10.0 mi SW 9.2 mph - N/A   Clear
8:15 AM 32.0 °F 23.6 °F 21.2 °F 64% 29.54 in 10.0 mi SW 10.4 mph - N/A   Clear
8:35 AM 33.8 °F 25.8 °F 21.2 °F 60% 29.54 in 10.0 mi SW 10.4 mph - N/A   Clear
8:55 AM 33.8 °F 25.8 °F 23.0 °F 65% 29.54 in 10.0 mi WSW 10.4 mph - N/A   Clear
9:15 AM 35.6 °F 28.0 °F 24.8 °F 65% 29.54 in 10.0 mi WSW 10.4 mph - N/A   Clear
9:35 AM 37.4 °F 32.1 °F 24.8 °F 60% 29.54 in 10.0 mi West 6.9 mph - N/A   Clear
9:55 AM 42.8 °F 38.0 °F 26.6 °F 53% 29.54 in 10.0 mi West 8.1 mph - N/A   Clear
10:15 AM 42.8 °F 37.5 °F 26.6 °F 53% 29.54 in 10.0 mi NW 9.2 mph - N/A   Clear
10:35 AM 42.8 °F 37.5 °F 26.6 °F 53% 29.55 in 10.0 mi NW 9.2 mph - N/A   Clear
10:55 AM 46.4 °F 41.5 °F 28.4 °F 50% 29.55 in 10.0 mi NW 10.4 mph - N/A   Clear
11:15 AM 46.4 °F 43.5 °F 26.6 °F 46% 29.54 in 10.0 mi WNW 5.8 mph - N/A   Clear
11:35 AM 46.4 °F 43.5 °F 26.6 °F 46% 29.52 in 10.0 mi WNW 5.8 mph - N/A   Clear
11:55 AM 48.2 °F - 28.4 °F 46% 29.52 in 10.0 mi NW 6.9 mph - N/A   Clear
12:15 PM 50.0 °F - 28.4 °F 43% 29.50 in 10.0 mi NNW 8.1 mph - N/A   Clear
12:35 PM 51.8 °F - 28.4 °F 41% 29.48 in 10.0 mi Calm Calm - N/A   Clear
12:55 PM 51.8 °F - 28.4 °F 41% 29.47 in 10.0 mi North 3.5 mph - N/A   Clear
1:15 PM 53.6 °F - 28.4 °F 38% 29.48 in 10.0 mi NNW 15.0 mph - N/A   Clear
1:35 PM 53.6 °F - 28.4 °F 38% 29.48 in 10.0 mi NNW 13.8 mph - N/A   Clear
1:55 PM 53.6 °F - 28.4 °F 38% 29.49 in 10.0 mi NNW 12.7 mph - N/A   Clear
2:15 PM 55.4 °F - 30.2 °F 38% 29.48 in 10.0 mi NNW 16.1 mph - N/A   Clear
2:35 PM 55.4 °F - 30.2 °F 38% 29.49 in 10.0 mi North 16.1 mph - N/A   Clear
2:55 PM 55.4 °F - 30.2 °F 38% 29.51 in 10.0 mi NNW 13.8 mph - N/A   Clear
3:15 PM 55.4 °F - 28.4 °F 36% 29.52 in 10.0 mi NNW 13.8 mph - N/A   Clear
3:35 PM 55.4 °F - 28.4 °F 36% 29.54 in 10.0 mi NNW 16.1 mph - N/A   Clear
3:55 PM 53.6 °F - 30.2 °F 41% 29.55 in 10.0 mi NNW 18.4 mph 24.2 mph N/A   Clear
4:15 PM 53.6 °F - 30.2 °F 41% 29.57 in 10.0 mi NNW 17.3 mph - N/A   Clear
4:35 PM 53.6 °F - 30.2 °F 41% 29.59 in 10.0 mi NNW 15.0 mph - N/A   Clear
4:55 PM 51.8 °F - 30.2 °F 44% 29.60 in 10.0 mi NNW 18.4 mph - N/A   Clear
5:15 PM 51.8 °F - 30.2 °F 44% 29.62 in 10.0 mi NNW 23.0 mph 28.8 mph N/A   Clear
5:35 PM 51.8 °F - 28.4 °F 41% 29.63 in 10.0 mi NNW 23.0 mph 28.8 mph N/A   Clear
5:55 PM 50.0 °F - 28.4 °F 43% 29.64 in 10.0 mi NNW 23.0 mph 29.9 mph N/A   Clear
6:15 PM 48.2 °F - 28.4 °F 46% 29.66 in 10.0 mi NNW 20.7 mph - N/A   Clear
6:35 PM 48.2 °F - 28.4 °F 46% 29.68 in 10.0 mi NNW 17.3 mph 23.0 mph N/A   Partly Cloudy
6:55 PM 48.2 °F - 30.2 °F 50% 29.71 in 10.0 mi NNW 17.3 mph 21.9 mph N/A   Mostly Cloudy
7:15 PM 48.2 °F - 30.2 °F 50% 29.73 in 10.0 mi NW 15.0 mph - N/A   Overcast
7:35 PM 48.2 °F - 28.4 °F 46% 29.74 in 10.0 mi NW 23.0 mph 33.4 mph N/A   Overcast
7:55 PM 50.0 °F - 23.0 °F 35% 29.76 in 10.0 mi NW 27.6 mph 43.7 mph N/A   Overcast
8:15 PM 48.2 °F - 24.8 °F 40% 29.78 in 10.0 mi NW 25.3 mph 40.3 mph N/A   Overcast
8:35 PM 48.2 °F - 26.6 °F 43% 29.75 in 10.0 mi NNW 10.4 mph - N/A   Overcast
8:55 PM 46.4 °F 42.4 °F 24.8 °F 43% 29.73 in 10.0 mi North 8.1 mph - N/A   Mostly Cloudy
9:15 PM 42.8 °F 37.0 °F 21.2 °F 42% 29.75 in 10.0 mi West 10.4 mph - N/A   Partly Cloudy
9:35 PM 42.8 °F 38.0 °F 24.8 °F 49% 29.75 in 10.0 mi NW 8.1 mph - N/A   Clear
9:55 PM 39.2 °F 33.0 °F 21.2 °F 49% 29.75 in 10.0 mi WNW 9.2 mph - N/A   Clear
10:15 PM 39.2 °F 32.0 °F 21.2 °F 49% 29.77 in 10.0 mi WNW 11.5 mph - N/A   Clear
10:35 PM 41.0 °F 32.5 °F 17.6 °F 39% 29.77 in 10.0 mi NW 17.3 mph - N/A   Clear
10:55 PM 41.0 °F 32.8 °F 17.6 °F 39% 29.77 in 10.0 mi WNW 16.1 mph - N/A   Clear
11:15 PM 39.2 °F 30.2 °F 17.6 °F 42% 29.78 in 10.0 mi WNW 17.3 mph - N/A   Clear
11:35 PM 39.2 °F 30.5 °F 17.6 °F 42% 29.79 in 10.0 mi WNW 16.1 mph - N/A   Clear
11:55 PM 39.2 °F 30.2 °F 19.4 °F 45% 29.79 in 10.0 mi NW 17.3 mph - N/A   Clear